Skip Navigation Links
NOAA logo - Click to go to the NOAA homepage
NOAA's National Weather Service
Alaska Aviation Weather Unit
  NWS logo - Click to go to the NWS homepage
Left Navbar Graphic     08 AKDT = 16 GMT

   
NOAA is celebrating 200 years of science, service, and stewardship. Visit the NOAA 200th celebration Web site to learn more.
USA.gov is the U.S. Government's official Web portal to all Federal, state and local government Web resources and services.
Facebook
NWS on Facebook

Important Change Regarding the AAWU Web Presence

 

Over the last several months, the AAWU has been working to navigate its webpages to a nationally supported server. Security, as well as other needs, have necessitated the change.  In the process, we have made an effort to enhance the functionality of our website, as well as some of our products. As of June 20, 2017, aawu.arh.noaa.gov will be discontinued. The new AAWU web address is weather.gov/aawu. It is now live and will run in-parallel with the old site until it is discontinued. Please send any feedback or questions regarding the new webpages to nws.ar.aawu.webauthors@noaa.gov.  Thank you for your patience during this time of transition.
AAWU Home :: Display TAF Add Bookmark
TAF CYEV 231435Z 2314/2401 33005KT 1SM -RA BR VV003 TEMPO
     2314/2317 3SM BR OVC006
    FM231700 33008KT P6SM OVC005 TEMPO 2317/2322 3SM -DZ BR
    FM232200 33005KT P6SM OVC008
    RMK NXT FCST BY 231900Z=

METAR CYEV 231000Z 29005KT 1/4SM R06/3000V4500FT/U -DZ FG VV002 01/00 A2972 RMK FG8 SLP070= METAR CYEV 231100Z 29003KT 1/4SM R06/4500FT/D -DZ BR VV002 01/00 A2972 RMK FG8 SLP071= SPECI CYEV 231150Z 33004KT 1SM R06/P6000FT/N -DZ BR VV003 01/01 A2973 RMK FG8 SLP075= METAR CYEV 231200Z 33005KT 1SM R06/P6000FT/D -DZ BR VV003 01/01 A2973 RMK FG8 SLP075= SPECI CYEV 231208Z 32005KT 290V350 1/2SM R06/5000VP6000FT/D -DZ FG VV002 01/00 A2973 RMK FG8 SLP075= SPECI CYEV 231256Z 32004KT 1SM R06/P6000FT/D -DZ BR VV003 00/00 A2974 RMK FG8 VIS W 3 SLP077= METAR CYEV 231300Z 31004KT 1SM R06/P6000FT/U -DZ BR VV003 01/00 A2974 RMK FG8 VIS W 3 SLP077= METAR CYEV 231400Z 33004KT 1SM R06/P6000FT/D -DZ BR VV003 01/01 A2974 RMK FG8 VIS W 3 SLP078= SPECI CYEV 231428Z 34004KT 310V010 2SM BR OVC004 01/01 A2974 RMK ST8 SLP079= METAR CYEV 231500Z 34004KT 2SM BR OVC004 01/00 A2975 RMK ST8 SLP080= METAR CYEV 231600Z 35005KT 300V030 2SM BR OVC004 01/01 A2975 RMK ST8 VIS W 1 VIS N 5 SLP082=
 Alaska TAF Map

NOAA's National Weather Service
Alaska Aviation Weather Unit
6930 Sand Lake Road
Anchorage, AK 99502-1845
Disclaimer
Credits
Glossary
Privacy Policy
About Us
Career Opportunities
Contact AAWU Internet Services Site last modified: April, 17th 2012